Terminal Aerodrome Forecast
Issued by NWS

Home | Current Version | Previous Version | Text Only | Print | Product List | Glossary On
Versions: 1 2 3 4 5 6 7 8 9 10 11 12
755
FTUS46 KHNX 061138
TAFBFL
TAF
KBFL 061138Z 0612/0712 VRB03KT 5SM HZ OVC020
     FM061900 33007KT 6SM HZ SCT250=

USA.gov is the U.S. government's official web portal to all federal, state and local government web resources and services.